Málaga, Espagne

08:39 CET le 31 octobre 2014 (GMT +0100)
IALALHAU2 | Change Station
CLOSE
Current Station
Stations météorologiques personnelles
Location: Alhaurin De La Torre, Malaga
Altitude: 360 ft
Stations météo à proximité

Alt. 360 ft 36.66 °N, 4.55 °W | Updated 8 minutes ago

Clear
Ciel dégagé
58.8 ° F
Paraît 58.8 ° F
N
0.0
Vent Variable Vent de Nord
Gusts 0.0 mph

Aujourd'hui
Haut(e) -- | Bas -- ° F
--% Risque de précip.
Hier
Haut(e) -- | Bas -- ° F
Precip. -- pouce
7:40 AM 6:22 PM
Premier quartier, 52% visible
Pression 30.18 pouce
Visibilité -9999.0 Miles terrestres
Nuages
Point de rosée 48 ° F
Humidité 70%
Précipitations -999.00 pouce
Profondeur de la couche neigeuse Non disponible.
UV Non disponible.
Pollen Non disponible.
Qualité de l'air Non disponible.
Flu Activity Non disponible.
METAR LEMG 310730Z 29006KT CAVOK 13/11 Q1022 NOSIG

More Conditions Fewer Conditions

Pression 30.18 pouce
Visibilité -9999.0 Miles terrestres
Nuages
Point de rosée 48 ° F
Humidité 70%
Précipitations -999.00 pouce
Profondeur de la couche neigeuse Non disponible.
UV Non disponible.
Pollen Non disponible.
Qualité de l'air Non disponible.
Flu Activity Non disponible.
METAR LEMG 310730Z 29006KT CAVOK 13/11 Q1022 NOSIG

More Conditions Fewer Conditions

10-Day Weather Forecast

Almanac

Astronomie

Oct. 31, 2014 Lever Coucher
Temps réel
Crépuscule civil
Crépuscule nautique
Crépuscule astronomique
Lune
Durée de lumière visible
Longueur du jour
Tomorrow will be .
, % of the Moon is Illuminated

Extrêmes aujourd'hui

Country Highs Country Lows

Community

WunderPhotos

Upload Photos

1,766,573 Photos téléchargées !

WunderBlogs® & News

Nearby

Qualité de l'air

  Qualité de l'air Indice de la qualité de l'air Polluant
Not available.

Épaisseur de neige

Station Depth Altitude

Activité sismique

Ville Distance Mag. Time & Date
Minimum magnitude displayed is 2.5.

Températures des eaux côtières

Lieu Température

Stations météo à proximité